sensor_id;sensor_type;location;lat;lon;timestamp;temperature;humidity
21019;DHT22;10667;51.056;3.732;2023-05-29T00:01:33;16.40;99.90
21019;DHT22;10667;51.056;3.732;2023-05-29T00:03:59;16.50;99.90
21019;DHT22;10667;51.056;3.732;2023-05-29T00:06:25;16.60;99.90
21019;DHT22;10667;51.056;3.732;2023-05-29T00:08:51;16.40;99.90
21019;DHT22;10667;51.056;3.732;2023-05-29T00:11:16;16.40;99.90
21019;DHT22;10667;51.056;3.732;2023-05-29T00:13:42;16.30;99.90
21019;DHT22;10667;51.056;3.732;2023-05-29T00:16:08;16.30;99.90
21019;DHT22;10667;51.056;3.732;2023-05-29T00:18:35;16.30;99.90
21019;DHT22;10667;51.056;3.732;2023-05-29T00:21:01;16.30;99.90
21019;DHT22;10667;51.056;3.732;2023-05-29T00:23:27;16.20;99.90
21019;DHT22;10667;51.056;3.732;2023-05-29T00:25:52;16.40;99.90
21019;DHT22;10667;51.056;3.732;2023-05-29T00:28:18;16.30;99.90
21019;DHT22;10667;51.056;3.732;2023-05-29T00:30:44;16.20;99.90
21019;DHT22;10667;51.056;3.732;2023-05-29T00:33:09;16.20;99.90
21019;DHT22;10667;51.056;3.732;2023-05-29T00:35:35;16.20;99.90
21019;DHT22;10667;51.056;3.732;2023-05-29T00:38:01;16.10;99.90
21019;DHT22;10667;51.056;3.732;2023-05-29T00:40:27;16.10;99.90
21019;DHT22;10667;51.056;3.732;2023-05-29T00:42:52;15.90;99.90
21019;DHT22;10667;51.056;3.732;2023-05-29T00:45:18;15.90;99.90
21019;DHT22;10667;51.056;3.732;2023-05-29T00:47:44;15.90;99.90
21019;DHT22;10667;51.056;3.732;2023-05-29T00:50:11;15.90;99.90
21019;DHT22;10667;51.056;3.732;2023-05-29T00:52:40;15.80;99.90
21019;DHT22;10667;51.056;3.732;2023-05-29T00:55:07;15.80;99.90
21019;DHT22;10667;51.056;3.732;2023-05-29T00:57:34;15.70;99.90
21019;DHT22;10667;51.056;3.732;2023-05-29T01:00:02;15.60;99.90
21019;DHT22;10667;51.056;3.732;2023-05-29T01:02:30;15.60;99.90
21019;DHT22;10667;51.056;3.732;2023-05-29T01:04:57;15.70;99.90
21019;DHT22;10667;51.056;3.732;2023-05-29T01:07:22;15.50;99.90
21019;DHT22;10667;51.056;3.732;2023-05-29T01:09:48;15.50;99.90
21019;DHT22;10667;51.056;3.732;2023-05-29T01:12:38;15.50;99.90
21019;DHT22;10667;51.056;3.732;2023-05-29T01:18:19;15.60;99.90
21019;DHT22;10667;51.056;3.732;2023-05-29T01:21:08;15.50;99.90
21019;DHT22;10667;51.056;3.732;2023-05-29T01:29:01;15.30;99.90
21019;DHT22;10667;51.056;3.732;2023-05-29T01:31:28;15.20;99.90
21019;DHT22;10667;51.056;3.732;2023-05-29T01:33:58;15.10;99.90
21019;DHT22;10667;51.056;3.732;2023-05-29T01:36:25;15.10;99.90
21019;DHT22;10667;51.056;3.732;2023-05-29T01:38:53;15.00;99.90
21019;DHT22;10667;51.056;3.732;2023-05-29T01:41:20;14.90;99.90
21019;DHT22;10667;51.056;3.732;2023-05-29T01:43:47;15.00;99.90
21019;DHT22;10667;51.056;3.732;2023-05-29T01:46:14;14.90;99.90
21019;DHT22;10667;51.056;3.732;2023-05-29T01:48:44;14.80;99.90
21019;DHT22;10667;51.056;3.732;2023-05-29T01:51:11;14.90;99.90
21019;DHT22;10667;51.056;3.732;2023-05-29T01:53:38;15.00;99.90
21019;DHT22;10667;51.056;3.732;2023-05-29T01:56:05;15.00;99.90
21019;DHT22;10667;51.056;3.732;2023-05-29T01:58:33;15.10;99.90
21019;DHT22;10667;51.056;3.732;2023-05-29T02:01:00;15.00;99.90
21019;DHT22;10667;51.056;3.732;2023-05-29T02:03:26;15.10;99.90
21019;DHT22;10667;51.056;3.732;2023-05-29T02:05:59;15.00;99.90
21019;DHT22;10667;51.056;3.732;2023-05-29T02:08:26;14.90;99.90
21019;DHT22;10667;51.056;3.732;2023-05-29T02:10:52;14.90;99.90
21019;DHT22;10667;51.056;3.732;2023-05-29T02:13:17;14.90;99.90
21019;DHT22;10667;51.056;3.732;2023-05-29T02:15:43;14.90;99.90
21019;DHT22;10667;51.056;3.732;2023-05-29T02:18:12;15.10;99.90
21019;DHT22;10667;51.056;3.732;2023-05-29T02:20:38;15.10;99.90
21019;DHT22;10667;51.056;3.732;2023-05-29T02:23:03;15.00;99.90
21019;DHT22;10667;51.056;3.732;2023-05-29T02:25:29;14.90;99.90
21019;DHT22;10667;51.056;3.732;2023-05-29T02:27:55;14.90;99.90
21019;DHT22;10667;51.056;3.732;2023-05-29T02:30:20;14.80;99.90
21019;DHT22;10667;51.056;3.732;2023-05-29T02:32:46;14.70;99.90
21019;DHT22;10667;51.056;3.732;2023-05-29T02:35:12;14.60;99.90
21019;DHT22;10667;51.056;3.732;2023-05-29T02:37:41;14.60;99.90
21019;DHT22;10667;51.056;3.732;2023-05-29T02:40:07;14.60;99.90
21019;DHT22;10667;51.056;3.732;2023-05-29T02:42:34;14.50;99.90
21019;DHT22;10667;51.056;3.732;2023-05-29T02:44:59;14.50;99.90
21019;DHT22;10667;51.056;3.732;2023-05-29T02:47:25;14.40;99.90
21019;DHT22;10667;51.056;3.732;2023-05-29T02:49:51;14.50;99.90
21019;DHT22;10667;51.056;3.732;2023-05-29T02:52:16;14.50;99.90
21019;DHT22;10667;51.056;3.732;2023-05-29T02:54:42;14.60;99.90
21019;DHT22;10667;51.056;3.732;2023-05-29T02:57:08;14.50;99.90
21019;DHT22;10667;51.056;3.732;2023-05-29T02:59:33;14.40;99.90
21019;DHT22;10667;51.056;3.732;2023-05-29T03:01:59;14.40;99.90
21019;DHT22;10667;51.056;3.732;2023-05-29T03:04:25;14.40;99.90
21019;DHT22;10667;51.056;3.732;2023-05-29T03:06:51;14.40;99.90
21019;DHT22;10667;51.056;3.732;2023-05-29T03:09:18;14.30;99.90
21019;DHT22;10667;51.056;3.732;2023-05-29T03:11:44;14.40;99.90
21019;DHT22;10667;51.056;3.732;2023-05-29T03:14:10;14.30;99.90
21019;DHT22;10667;51.056;3.732;2023-05-29T03:16:36;14.30;99.90
21019;DHT22;10667;51.056;3.732;2023-05-29T03:19:03;14.30;99.90
21019;DHT22;10667;51.056;3.732;2023-05-29T03:21:29;14.40;99.90
21019;DHT22;10667;51.056;3.732;2023-05-29T03:23:54;14.40;99.90
21019;DHT22;10667;51.056;3.732;2023-05-29T03:26:20;14.40;99.90
21019;DHT22;10667;51.056;3.732;2023-05-29T03:28:46;14.30;99.90
21019;DHT22;10667;51.056;3.732;2023-05-29T03:31:12;14.20;99.90
21019;DHT22;10667;51.056;3.732;2023-05-29T03:33:38;14.20;99.90
21019;DHT22;10667;51.056;3.732;2023-05-29T03:36:03;14.20;99.90
21019;DHT22;10667;51.056;3.732;2023-05-29T03:38:30;14.20;99.90
21019;DHT22;10667;51.056;3.732;2023-05-29T03:40:56;14.10;99.90
21019;DHT22;10667;51.056;3.732;2023-05-29T03:43:21;14.00;99.90
21019;DHT22;10667;51.056;3.732;2023-05-29T03:45:47;14.00;99.90
21019;DHT22;10667;51.056;3.732;2023-05-29T03:48:13;13.90;99.90
21019;DHT22;10667;51.056;3.732;2023-05-29T03:50:40;13.90;99.90
21019;DHT22;10667;51.056;3.732;2023-05-29T03:53:06;13.90;99.90
21019;DHT22;10667;51.056;3.732;2023-05-29T03:55:32;14.00;99.90
21019;DHT22;10667;51.056;3.732;2023-05-29T03:57:57;14.00;99.90
21019;DHT22;10667;51.056;3.732;2023-05-29T04:00:23;13.90;99.90
21019;DHT22;10667;51.056;3.732;2023-05-29T04:02:49;13.80;99.90
21019;DHT22;10667;51.056;3.732;2023-05-29T04:05:14;13.70;99.90
21019;DHT22;10667;51.056;3.732;2023-05-29T04:07:41;13.70;99.90
21019;DHT22;10667;51.056;3.732;2023-05-29T04:10:07;13.80;99.90
21019;DHT22;10667;51.056;3.732;2023-05-29T04:12:33;13.90;99.90
21019;DHT22;10667;51.056;3.732;2023-05-29T04:14:59;13.90;99.90
21019;DHT22;10667;51.056;3.732;2023-05-29T04:17:25;13.90;99.90
21019;DHT22;10667;51.056;3.732;2023-05-29T04:19:51;13.80;99.90
21019;DHT22;10667;51.056;3.732;2023-05-29T04:22:16;13.70;99.90
21019;DHT22;10667;51.056;3.732;2023-05-29T04:24:42;13.70;99.90
21019;DHT22;10667;51.056;3.732;2023-05-29T04:27:08;13.80;99.90
21019;DHT22;10667;51.056;3.732;2023-05-29T04:29:41;13.80;99.90
21019;DHT22;10667;51.056;3.732;2023-05-29T04:32:10;13.70;99.90
21019;DHT22;10667;51.056;3.732;2023-05-29T04:34:39;13.80;99.90
21019;DHT22;10667;51.056;3.732;2023-05-29T04:37:06;13.80;99.90
21019;DHT22;10667;51.056;3.732;2023-05-29T04:39:32;13.80;99.90
21019;DHT22;10667;51.056;3.732;2023-05-29T04:41:58;13.80;99.90
21019;DHT22;10667;51.056;3.732;2023-05-29T04:44:26;13.80;99.90
21019;DHT22;10667;51.056;3.732;2023-05-29T04:46:53;13.60;99.90
21019;DHT22;10667;51.056;3.732;2023-05-29T04:49:19;13.50;99.90
21019;DHT22;10667;51.056;3.732;2023-05-29T04:51:46;13.60;99.90
21019;DHT22;10667;51.056;3.732;2023-05-29T04:54:12;13.60;99.90
21019;DHT22;10667;51.056;3.732;2023-05-29T04:56:38;13.70;99.90
21019;DHT22;10667;51.056;3.732;2023-05-29T04:59:05;13.60;99.90
21019;DHT22;10667;51.056;3.732;2023-05-29T05:01:32;13.50;99.90
21019;DHT22;10667;51.056;3.732;2023-05-29T05:03:59;13.50;99.90
21019;DHT22;10667;51.056;3.732;2023-05-29T05:06:25;13.60;99.90
21019;DHT22;10667;51.056;3.732;2023-05-29T05:08:51;13.60;99.90
21019;DHT22;10667;51.056;3.732;2023-05-29T05:11:21;13.60;99.90
21019;DHT22;10667;51.056;3.732;2023-05-29T05:13:47;13.70;99.90
21019;DHT22;10667;51.056;3.732;2023-05-29T05:16:13;13.80;99.90
21019;DHT22;10667;51.056;3.732;2023-05-29T05:18:38;13.90;99.90
21019;DHT22;10667;51.056;3.732;2023-05-29T05:21:04;13.90;99.90
21019;DHT22;10667;51.056;3.732;2023-05-29T05:23:31;14.00;99.90
21019;DHT22;10667;51.056;3.732;2023-05-29T05:25:56;14.00;99.90
21019;DHT22;10667;51.056;3.732;2023-05-29T05:28:22;13.90;99.90
21019;DHT22;10667;51.056;3.732;2023-05-29T05:30:48;13.90;99.90
21019;DHT22;10667;51.056;3.732;2023-05-29T05:33:13;14.00;99.90
21019;DHT22;10667;51.056;3.732;2023-05-29T05:35:39;14.00;99.90
21019;DHT22;10667;51.056;3.732;2023-05-29T05:38:05;14.00;99.90
21019;DHT22;10667;51.056;3.732;2023-05-29T05:40:31;13.90;99.90
21019;DHT22;10667;51.056;3.732;2023-05-29T05:42:57;13.90;99.90
21019;DHT22;10667;51.056;3.732;2023-05-29T05:45:23;13.80;99.90
21019;DHT22;10667;51.056;3.732;2023-05-29T05:47:48;13.90;99.90
21019;DHT22;10667;51.056;3.732;2023-05-29T05:50:14;14.00;99.90
21019;DHT22;10667;51.056;3.732;2023-05-29T05:52:40;14.00;99.90
21019;DHT22;10667;51.056;3.732;2023-05-29T05:55:06;13.90;99.90
21019;DHT22;10667;51.056;3.732;2023-05-29T05:57:33;13.80;99.90
21019;DHT22;10667;51.056;3.732;2023-05-29T05:59:59;13.80;99.90
21019;DHT22;10667;51.056;3.732;2023-05-29T06:02:25;13.70;99.90
21019;DHT22;10667;51.056;3.732;2023-05-29T06:04:51;13.80;99.90
21019;DHT22;10667;51.056;3.732;2023-05-29T06:07:17;14.00;99.90
21019;DHT22;10667;51.056;3.732;2023-05-29T06:09:43;14.10;99.90
21019;DHT22;10667;51.056;3.732;2023-05-29T06:12:09;14.00;99.90
21019;DHT22;10667;51.056;3.732;2023-05-29T06:14:35;14.20;99.90
21019;DHT22;10667;51.056;3.732;2023-05-29T06:17:01;14.20;99.90
21019;DHT22;10667;51.056;3.732;2023-05-29T06:19:26;14.30;99.90
21019;DHT22;10667;51.056;3.732;2023-05-29T06:21:52;14.20;99.90
21019;DHT22;10667;51.056;3.732;2023-05-29T06:24:18;14.20;99.90
21019;DHT22;10667;51.056;3.732;2023-05-29T06:26:43;14.30;99.90
21019;DHT22;10667;51.056;3.732;2023-05-29T06:29:09;14.50;99.90
21019;DHT22;10667;51.056;3.732;2023-05-29T06:31:35;14.50;99.90
21019;DHT22;10667;51.056;3.732;2023-05-29T06:34:01;14.40;99.90
21019;DHT22;10667;51.056;3.732;2023-05-29T06:36:26;14.40;99.90
21019;DHT22;10667;51.056;3.732;2023-05-29T06:38:52;14.40;99.90
21019;DHT22;10667;51.056;3.732;2023-05-29T06:41:18;14.50;99.90
21019;DHT22;10667;51.056;3.732;2023-05-29T06:43:44;14.40;99.90
21019;DHT22;10667;51.056;3.732;2023-05-29T06:46:10;14.30;99.90
21019;DHT22;10667;51.056;3.732;2023-05-29T06:48:36;14.40;99.90
21019;DHT22;10667;51.056;3.732;2023-05-29T06:51:02;14.40;99.90
21019;DHT22;10667;51.056;3.732;2023-05-29T06:53:35;14.50;99.90
21019;DHT22;10667;51.056;3.732;2023-05-29T06:56:01;14.80;99.90
21019;DHT22;10667;51.056;3.732;2023-05-29T06:58:27;14.90;99.90
21019;DHT22;10667;51.056;3.732;2023-05-29T07:00:53;14.90;99.90
21019;DHT22;10667;51.056;3.732;2023-05-29T07:03:18;14.90;99.90
21019;DHT22;10667;51.056;3.732;2023-05-29T07:05:44;14.90;99.90
21019;DHT22;10667;51.056;3.732;2023-05-29T07:08:09;14.80;99.90
21019;DHT22;10667;51.056;3.732;2023-05-29T07:10:35;14.70;99.90
21019;DHT22;10667;51.056;3.732;2023-05-29T07:13:01;14.90;99.90
21019;DHT22;10667;51.056;3.732;2023-05-29T07:15:26;14.90;99.90
21019;DHT22;10667;51.056;3.732;2023-05-29T07:17:52;15.00;99.90
21019;DHT22;10667;51.056;3.732;2023-05-29T07:20:17;15.20;99.90
21019;DHT22;10667;51.056;3.732;2023-05-29T07:22:45;15.20;99.90
21019;DHT22;10667;51.056;3.732;2023-05-29T07:25:11;15.20;99.90
21019;DHT22;10667;51.056;3.732;2023-05-29T07:27:37;15.20;99.90
21019;DHT22;10667;51.056;3.732;2023-05-29T07:30:03;15.30;99.90
21019;DHT22;10667;51.056;3.732;2023-05-29T07:32:31;15.30;99.90
21019;DHT22;10667;51.056;3.732;2023-05-29T07:34:56;15.40;99.90
21019;DHT22;10667;51.056;3.732;2023-05-29T07:37:22;15.80;99.90
21019;DHT22;10667;51.056;3.732;2023-05-29T07:39:48;15.80;99.90
21019;DHT22;10667;51.056;3.732;2023-05-29T07:42:13;15.80;99.90
21019;DHT22;10667;51.056;3.732;2023-05-29T07:44:39;16.00;99.90
21019;DHT22;10667;51.056;3.732;2023-05-29T07:47:07;16.20;99.90
21019;DHT22;10667;51.056;3.732;2023-05-29T07:49:33;16.30;99.90
21019;DHT22;10667;51.056;3.732;2023-05-29T07:51:58;16.50;99.90
21019;DHT22;10667;51.056;3.732;2023-05-29T07:54:24;16.40;99.90
21019;DHT22;10667;51.056;3.732;2023-05-29T07:56:49;16.40;99.90
21019;DHT22;10667;51.056;3.732;2023-05-29T07:59:15;16.50;99.90
21019;DHT22;10667;51.056;3.732;2023-05-29T08:01:42;16.70;99.90
21019;DHT22;10667;51.056;3.732;2023-05-29T08:04:09;16.70;99.90
21019;DHT22;10667;51.056;3.732;2023-05-29T08:06:34;16.80;99.90
21019;DHT22;10667;51.056;3.732;2023-05-29T08:09:02;17.00;99.90
21019;DHT22;10667;51.056;3.732;2023-05-29T08:11:28;16.90;99.90
21019;DHT22;10667;51.056;3.732;2023-05-29T08:13:54;17.00;99.90
21019;DHT22;10667;51.056;3.732;2023-05-29T08:16:20;17.10;99.90
21019;DHT22;10667;51.056;3.732;2023-05-29T08:18:47;17.00;99.90
21019;DHT22;10667;51.056;3.732;2023-05-29T08:21:13;16.80;99.90
21019;DHT22;10667;51.056;3.732;2023-05-29T08:23:39;16.90;99.90
21019;DHT22;10667;51.056;3.732;2023-05-29T08:26:05;16.90;99.90
21019;DHT22;10667;51.056;3.732;2023-05-29T08:28:30;17.00;99.90
21019;DHT22;10667;51.056;3.732;2023-05-29T08:30:56;17.20;99.90
21019;DHT22;10667;51.056;3.732;2023-05-29T08:33:22;17.30;99.90
21019;DHT22;10667;51.056;3.732;2023-05-29T08:35:47;17.30;99.90
21019;DHT22;10667;51.056;3.732;2023-05-29T08:38:13;17.40;99.90
21019;DHT22;10667;51.056;3.732;2023-05-29T08:40:39;17.40;99.90
21019;DHT22;10667;51.056;3.732;2023-05-29T08:43:13;17.30;99.90
21019;DHT22;10667;51.056;3.732;2023-05-29T08:45:42;17.30;99.90
21019;DHT22;10667;51.056;3.732;2023-05-29T08:48:10;17.20;99.90
21019;DHT22;10667;51.056;3.732;2023-05-29T08:50:41;17.00;99.90
21019;DHT22;10667;51.056;3.732;2023-05-29T08:53:07;17.10;99.90
21019;DHT22;10667;51.056;3.732;2023-05-29T08:55:33;17.30;99.90
21019;DHT22;10667;51.056;3.732;2023-05-29T08:57:59;17.40;99.90
21019;DHT22;10667;51.056;3.732;2023-05-29T09:00:25;17.70;99.90
21019;DHT22;10667;51.056;3.732;2023-05-29T09:02:54;18.00;99.90
21019;DHT22;10667;51.056;3.732;2023-05-29T09:05:21;18.10;99.90
21019;DHT22;10667;51.056;3.732;2023-05-29T09:07:47;18.10;99.90
21019;DHT22;10667;51.056;3.732;2023-05-29T09:10:15;17.80;99.90
21019;DHT22;10667;51.056;3.732;2023-05-29T09:12:41;17.90;99.90
21019;DHT22;10667;51.056;3.732;2023-05-29T09:15:27;18.00;99.90
21019;DHT22;10667;51.056;3.732;2023-05-29T09:17:55;18.00;99.90
21019;DHT22;10667;51.056;3.732;2023-05-29T09:20:21;18.30;99.90
21019;DHT22;10667;51.056;3.732;2023-05-29T09:22:59;18.40;99.90
21019;DHT22;10667;51.056;3.732;2023-05-29T09:25:30;18.60;99.90
21019;DHT22;10667;51.056;3.732;2023-05-29T09:28:02;18.80;99.90
21019;DHT22;10667;51.056;3.732;2023-05-29T09:30:39;18.90;99.90
21019;DHT22;10667;51.056;3.732;2023-05-29T09:33:09;19.30;99.90
21019;DHT22;10667;51.056;3.732;2023-05-29T09:35:43;19.20;99.90
21019;DHT22;10667;51.056;3.732;2023-05-29T09:38:11;19.30;99.90
21019;DHT22;10667;51.056;3.732;2023-05-29T09:40:38;19.40;99.90
21019;DHT22;10667;51.056;3.732;2023-05-29T09:43:14;19.40;99.90
21019;DHT22;10667;51.056;3.732;2023-05-29T09:45:44;19.30;99.90
21019;DHT22;10667;51.056;3.732;2023-05-29T09:48:19;19.50;99.90
21019;DHT22;10667;51.056;3.732;2023-05-29T09:50:47;19.80;99.90
21019;DHT22;10667;51.056;3.732;2023-05-29T09:53:27;19.90;99.90
21019;DHT22;10667;51.056;3.732;2023-05-29T09:55:55;20.00;99.90
21019;DHT22;10667;51.056;3.732;2023-05-29T09:58:24;20.20;99.90
21019;DHT22;10667;51.056;3.732;2023-05-29T10:00:51;20.20;99.90
21019;DHT22;10667;51.056;3.732;2023-05-29T10:03:17;20.00;99.90
21019;DHT22;10667;51.056;3.732;2023-05-29T10:05:50;20.00;99.90
21019;DHT22;10667;51.056;3.732;2023-05-29T10:08:18;20.10;99.90
21019;DHT22;10667;51.056;3.732;2023-05-29T10:10:46;20.00;99.90
21019;DHT22;10667;51.056;3.732;2023-05-29T10:13:13;19.90;99.90
21019;DHT22;10667;51.056;3.732;2023-05-29T10:15:41;19.90;99.90
21019;DHT22;10667;51.056;3.732;2023-05-29T10:18:19;19.80;99.90
21019;DHT22;10667;51.056;3.732;2023-05-29T10:20:50;20.00;99.90
21019;DHT22;10667;51.056;3.732;2023-05-29T10:23:21;20.00;99.90
21019;DHT22;10667;51.056;3.732;2023-05-29T10:25:51;20.20;99.90
21019;DHT22;10667;51.056;3.732;2023-05-29T10:28:19;20.20;99.90
21019;DHT22;10667;51.056;3.732;2023-05-29T10:30:57;20.30;99.90
21019;DHT22;10667;51.056;3.732;2023-05-29T10:36:18;20.40;99.90
21019;DHT22;10667;51.056;3.732;2023-05-29T10:38:45;20.50;99.90
21019;DHT22;10667;51.056;3.732;2023-05-29T10:41:29;20.70;99.90
21019;DHT22;10667;51.056;3.732;2023-05-29T10:43:56;21.10;99.90
21019;DHT22;10667;51.056;3.732;2023-05-29T10:46:21;21.30;99.90
21019;DHT22;10667;51.056;3.732;2023-05-29T10:49:17;21.80;99.90
21019;DHT22;10667;51.056;3.732;2023-05-29T10:51:43;22.10;99.90
21019;DHT22;10667;51.056;3.732;2023-05-29T10:54:09;22.20;99.90
21019;DHT22;10667;51.056;3.732;2023-05-29T10:56:35;21.90;99.90
21019;DHT22;10667;51.056;3.732;2023-05-29T10:59:01;22.30;99.90
21019;DHT22;10667;51.056;3.732;2023-05-29T11:01:28;22.70;99.70
21019;DHT22;10667;51.056;3.732;2023-05-29T11:06:39;23.00;99.70
21019;DHT22;10667;51.056;3.732;2023-05-29T11:09:05;23.10;98.60
21019;DHT22;10667;51.056;3.732;2023-05-29T11:11:33;23.20;98.70
21019;DHT22;10667;51.056;3.732;2023-05-29T11:14:04;23.40;97.60
21019;DHT22;10667;51.056;3.732;2023-05-29T11:19:05;23.60;96.90
21019;DHT22;10667;51.056;3.732;2023-05-29T11:24:38;24.30;95.00
21019;DHT22;10667;51.056;3.732;2023-05-29T11:27:05;24.80;93.10
21019;DHT22;10667;51.056;3.732;2023-05-29T11:29:33;25.10;93.10
21019;DHT22;10667;51.056;3.732;2023-05-29T11:32:07;24.90;91.80
21019;DHT22;10667;51.056;3.732;2023-05-29T11:34:40;24.70;93.00
21019;DHT22;10667;51.056;3.732;2023-05-29T11:37:06;25.20;91.40
21019;DHT22;10667;51.056;3.732;2023-05-29T11:39:36;25.70;91.00
21019;DHT22;10667;51.056;3.732;2023-05-29T11:42:02;25.90;88.20
21019;DHT22;10667;51.056;3.732;2023-05-29T11:44:29;26.60;87.70
21019;DHT22;10667;51.056;3.732;2023-05-29T11:47:01;26.60;82.60
21019;DHT22;10667;51.056;3.732;2023-05-29T11:49:31;28.10;79.60
21019;DHT22;10667;51.056;3.732;2023-05-29T11:52:13;28.80;74.40
21019;DHT22;10667;51.056;3.732;2023-05-29T11:54:45;29.40;67.10
21019;DHT22;10667;51.056;3.732;2023-05-29T11:57:21;29.60;65.40
21019;DHT22;10667;51.056;3.732;2023-05-29T11:59:49;31.00;62.20
21019;DHT22;10667;51.056;3.732;2023-05-29T12:02:14;32.10;56.00
21019;DHT22;10667;51.056;3.732;2023-05-29T12:04:40;31.80;52.10
21019;DHT22;10667;51.056;3.732;2023-05-29T12:07:18;30.20;54.60
21019;DHT22;10667;51.056;3.732;2023-05-29T12:09:44;30.70;54.00
21019;DHT22;10667;51.056;3.732;2023-05-29T12:12:10;31.60;52.10
21019;DHT22;10667;51.056;3.732;2023-05-29T12:14:35;30.40;51.40
21019;DHT22;10667;51.056;3.732;2023-05-29T12:17:01;31.60;51.20
21019;DHT22;10667;51.056;3.732;2023-05-29T12:19:27;32.50;50.40
21019;DHT22;10667;51.056;3.732;2023-05-29T12:21:53;33.50;47.10
21019;DHT22;10667;51.056;3.732;2023-05-29T12:24:19;32.70;47.10
21019;DHT22;10667;51.056;3.732;2023-05-29T12:26:45;32.90;47.70
21019;DHT22;10667;51.056;3.732;2023-05-29T12:29:13;33.60;45.00
21019;DHT22;10667;51.056;3.732;2023-05-29T12:31:38;34.10;45.20
21019;DHT22;10667;51.056;3.732;2023-05-29T12:34:11;34.40;43.60
21019;DHT22;10667;51.056;3.732;2023-05-29T12:36:41;34.50;43.50
21019;DHT22;10667;51.056;3.732;2023-05-29T12:39:08;33.10;43.80
21019;DHT22;10667;51.056;3.732;2023-05-29T12:41:35;32.90;44.50
21019;DHT22;10667;51.056;3.732;2023-05-29T12:44:03;33.80;42.70
21019;DHT22;10667;51.056;3.732;2023-05-29T12:46:37;33.40;43.80
21019;DHT22;10667;51.056;3.732;2023-05-29T12:49:16;33.40;42.90
21019;DHT22;10667;51.056;3.732;2023-05-29T12:51:43;33.90;41.90
21019;DHT22;10667;51.056;3.732;2023-05-29T12:54:10;34.50;40.80
21019;DHT22;10667;51.056;3.732;2023-05-29T12:56:37;33.90;41.20
21019;DHT22;10667;51.056;3.732;2023-05-29T12:59:08;33.20;42.30
21019;DHT22;10667;51.056;3.732;2023-05-29T13:01:35;33.40;41.80
21019;DHT22;10667;51.056;3.732;2023-05-29T13:04:03;33.50;42.80
21019;DHT22;10667;51.056;3.732;2023-05-29T13:06:35;33.70;41.10
21019;DHT22;10667;51.056;3.732;2023-05-29T13:09:01;34.80;39.30
21019;DHT22;10667;51.056;3.732;2023-05-29T13:11:26;34.90;39.80
21019;DHT22;10667;51.056;3.732;2023-05-29T13:13:52;35.10;38.90
21019;DHT22;10667;51.056;3.732;2023-05-29T13:16:18;35.50;37.20
21019;DHT22;10667;51.056;3.732;2023-05-29T13:18:43;35.80;36.40
21019;DHT22;10667;51.056;3.732;2023-05-29T13:21:09;35.00;37.00
21019;DHT22;10667;51.056;3.732;2023-05-29T13:23:36;35.30;36.90
21019;DHT22;10667;51.056;3.732;2023-05-29T13:26:03;36.00;36.00
21019;DHT22;10667;51.056;3.732;2023-05-29T13:28:28;35.80;36.90
21019;DHT22;10667;51.056;3.732;2023-05-29T13:30:54;35.00;35.70
21019;DHT22;10667;51.056;3.732;2023-05-29T13:33:20;35.00;36.80
21019;DHT22;10667;51.056;3.732;2023-05-29T13:35:45;35.10;37.00
21019;DHT22;10667;51.056;3.732;2023-05-29T13:38:11;35.40;35.90
21019;DHT22;10667;51.056;3.732;2023-05-29T13:40:37;34.40;35.40
21019;DHT22;10667;51.056;3.732;2023-05-29T13:43:02;35.30;35.30
21019;DHT22;10667;51.056;3.732;2023-05-29T13:45:28;35.90;34.70
21019;DHT22;10667;51.056;3.732;2023-05-29T13:47:55;36.30;33.50
21019;DHT22;10667;51.056;3.732;2023-05-29T13:50:21;36.00;33.00
21019;DHT22;10667;51.056;3.732;2023-05-29T13:52:49;35.60;33.60
21019;DHT22;10667;51.056;3.732;2023-05-29T13:55:14;34.30;36.10
21019;DHT22;10667;51.056;3.732;2023-05-29T13:57:40;33.20;35.10
21019;DHT22;10667;51.056;3.732;2023-05-29T14:00:11;34.10;35.60
21019;DHT22;10667;51.056;3.732;2023-05-29T14:02:37;34.40;35.10
21019;DHT22;10667;51.056;3.732;2023-05-29T14:05:03;35.10;33.70
21019;DHT22;10667;51.056;3.732;2023-05-29T14:07:31;35.20;33.00
21019;DHT22;10667;51.056;3.732;2023-05-29T14:09:57;34.70;34.20
21019;DHT22;10667;51.056;3.732;2023-05-29T14:12:22;34.00;34.80
21019;DHT22;10667;51.056;3.732;2023-05-29T14:14:48;34.00;35.10
21019;DHT22;10667;51.056;3.732;2023-05-29T14:17:14;34.50;34.10
21019;DHT22;10667;51.056;3.732;2023-05-29T14:19:40;34.60;34.70
21019;DHT22;10667;51.056;3.732;2023-05-29T14:22:06;34.70;34.00
21019;DHT22;10667;51.056;3.732;2023-05-29T14:24:31;34.60;34.70
21019;DHT22;10667;51.056;3.732;2023-05-29T14:26:57;34.50;35.20
21019;DHT22;10667;51.056;3.732;2023-05-29T14:29:23;33.90;35.20
21019;DHT22;10667;51.056;3.732;2023-05-29T14:31:48;33.40;35.80
21019;DHT22;10667;51.056;3.732;2023-05-29T14:34:14;32.70;36.50
21019;DHT22;10667;51.056;3.732;2023-05-29T14:36:40;32.60;36.90
21019;DHT22;10667;51.056;3.732;2023-05-29T14:39:07;32.60;37.70
21019;DHT22;10667;51.056;3.732;2023-05-29T14:41:32;32.00;38.80
21019;DHT22;10667;51.056;3.732;2023-05-29T14:44:00;32.20;38.90
21019;DHT22;10667;51.056;3.732;2023-05-29T14:46:26;31.70;39.20
21019;DHT22;10667;51.056;3.732;2023-05-29T14:48:53;31.70;39.60
21019;DHT22;10667;51.056;3.732;2023-05-29T14:51:20;31.80;39.20
21019;DHT22;10667;51.056;3.732;2023-05-29T14:53:46;31.90;39.20
21019;DHT22;10667;51.056;3.732;2023-05-29T14:56:12;31.30;39.90
21019;DHT22;10667;51.056;3.732;2023-05-29T14:58:37;30.80;40.80
21019;DHT22;10667;51.056;3.732;2023-05-29T15:01:03;30.60;41.50
21019;DHT22;10667;51.056;3.732;2023-05-29T15:03:28;30.30;41.90
21019;DHT22;10667;51.056;3.732;2023-05-29T15:05:54;29.70;42.10
21019;DHT22;10667;51.056;3.732;2023-05-29T15:08:21;29.80;42.70
21019;DHT22;10667;51.056;3.732;2023-05-29T15:10:46;29.50;42.50
21019;DHT22;10667;51.056;3.732;2023-05-29T15:13:12;29.40;42.70
21019;DHT22;10667;51.056;3.732;2023-05-29T15:15:37;28.90;43.20
21019;DHT22;10667;51.056;3.732;2023-05-29T15:18:03;29.00;43.30
21019;DHT22;10667;51.056;3.732;2023-05-29T15:20:29;28.70;43.60
21019;DHT22;10667;51.056;3.732;2023-05-29T15:22:54;28.60;44.20
21019;DHT22;10667;51.056;3.732;2023-05-29T15:25:21;28.10;45.80
21019;DHT22;10667;51.056;3.732;2023-05-29T15:27:47;27.50;46.40
21019;DHT22;10667;51.056;3.732;2023-05-29T15:30:15;27.00;47.30
21019;DHT22;10667;51.056;3.732;2023-05-29T15:32:42;27.20;47.40
21019;DHT22;10667;51.056;3.732;2023-05-29T15:35:12;27.50;47.40
21019;DHT22;10667;51.056;3.732;2023-05-29T15:37:38;26.60;48.10
21019;DHT22;10667;51.056;3.732;2023-05-29T15:40:05;26.30;48.90
21019;DHT22;10667;51.056;3.732;2023-05-29T15:42:31;26.40;49.10
21019;DHT22;10667;51.056;3.732;2023-05-29T15:44:58;26.10;49.20
21019;DHT22;10667;51.056;3.732;2023-05-29T15:47:23;25.80;49.70
21019;DHT22;10667;51.056;3.732;2023-05-29T15:49:49;25.70;51.30